Time;durP1;ratioP1;P1;durP2;ratioP2;P2;SDS_P1;SDS_P2;PMS_P1;PMS_P2;Temp;Humidity;BMP_temperature;BMP_pressure;BME280_temperature;BME280_humidity;BME280_pressure;Samples;Min_cycle;Max_cycle;Signal;HPM_P1;HPM_P2
2022/01/22 00:00:13;;;;;;;15.15;3.90;;;;;;;;;;5010058;28;20597;-64
2022/01/22 00:02:39;;;;;;;17.13;3.90;;;;;;;;;;4994770;28;20325;-65
2022/01/22 00:05:04;;;;;;;13.57;3.53;;;;;;;;;;4995061;28;20233;-64
2022/01/22 00:07:29;;;;;;;11.05;3.58;;;;;;;;;;4995358;28;20632;-65
2022/01/22 00:10:00;;;;;;;13.37;3.33;;;;;;;;;;4994504;28;20224;-64
2022/01/22 00:15:02;;;;;;;12.30;3.83;;;;;;;;;;4979194;28;20270;-63
2022/01/22 00:17:27;;;;;;;14.80;3.30;;;;;;;;;;4982155;28;20221;-64
2022/01/22 00:19:53;;;;;;;11.23;2.90;;;;;;;;;;4975716;28;20233;-64
2022/01/22 00:22:22;;;;;;;14.00;3.78;;;;;;;;;;4981979;28;21003;-64
2022/01/22 00:24:53;;;;;;;14.70;4.03;;;;;;;;;;5012825;28;20676;-64
2022/01/22 00:27:18;;;;;;;18.33;4.03;;;;;;;;;;5014122;28;20212;-64
2022/01/22 00:29:44;;;;;;;14.13;3.53;;;;;;;;;;5014753;28;20239;-65
2022/01/22 00:32:09;;;;;;;14.63;3.50;;;;;;;;;;5013235;28;20220;-64
2022/01/22 00:34:34;;;;;;;13.57;3.88;;;;;;;;;;5014605;28;20631;-64
2022/01/22 00:37:00;;;;;;;15.13;3.77;;;;;;;;;;5014574;28;20208;-64
2022/01/22 00:39:25;;;;;;;12.07;3.70;;;;;;;;;;5013067;28;20251;-64
2022/01/22 00:41:50;;;;;;;14.85;3.85;;;;;;;;;;5014525;28;20221;-65
2022/01/22 00:44:16;;;;;;;15.60;4.00;;;;;;;;;;5013186;28;20212;-65
2022/01/22 00:46:41;;;;;;;16.23;3.80;;;;;;;;;;5014554;28;20212;-65
2022/01/22 00:49:06;;;;;;;14.20;4.40;;;;;;;;;;5013605;28;20228;-64
2022/01/22 00:51:31;;;;;;;12.63;3.57;;;;;;;;;;5013472;28;20212;-64
2022/01/22 00:53:57;;;;;;;16.08;4.50;;;;;;;;;;5014040;28;20303;-65
2022/01/22 00:56:22;;;;;;;10.80;3.20;;;;;;;;;;5013678;28;20243;-64
2022/01/22 00:58:48;;;;;;;19.20;4.87;;;;;;;;;;5013183;28;20225;-64
2022/01/22 01:01:13;;;;;;;14.53;4.30;;;;;;;;;;5000492;28;20316;-64
2022/01/22 01:03:38;;;;;;;15.83;4.87;;;;;;;;;;4994388;28;20301;-64
2022/01/22 01:06:04;;;;;;;14.47;4.13;;;;;;;;;;4993366;28;20260;-64
2022/01/22 01:08:32;;;;;;;11.73;4.03;;;;;;;;;;4994165;28;20264;-64
2022/01/22 01:10:57;;;;;;;20.13;4.30;;;;;;;;;;4994072;28;20300;-65
2022/01/22 01:13:25;;;;;;;15.20;4.00;;;;;;;;;;4993284;28;20545;-64
2022/01/22 01:32:18;;;;;;;19.33;3.50;;;;;;;;;;4975105;28;20244;-65
2022/01/22 01:34:45;;;;;;;18.17;4.10;;;;;;;;;;4973143;28;20216;-64
2022/01/22 01:37:14;;;;;;;19.02;3.83;;;;;;;;;;4974300;28;20224;-64
2022/01/22 01:39:41;;;;;;;12.18;3.90;;;;;;;;;;4974115;28;20234;-64
2022/01/22 01:42:12;;;;;;;14.05;3.40;;;;;;;;;;4973107;28;20221;-64
2022/01/22 01:44:38;;;;;;;12.03;3.50;;;;;;;;;;4974326;28;20301;-64
2022/01/22 01:47:04;;;;;;;12.87;3.83;;;;;;;;;;4972768;28;20249;-63
2022/01/22 01:49:29;;;;;;;14.10;3.60;;;;;;;;;;4972275;28;20595;-64
2022/01/22 01:51:57;;;;;;;13.33;3.50;;;;;;;;;;4974458;28;20217;-64
2022/01/22 01:54:30;;;;;;;19.02;3.95;;;;;;;;;;4973717;28;20213;-64
2022/01/22 01:59:40;;;;;;;13.55;3.10;;;;;;;;;;4973085;28;20976;-65
2022/01/22 02:02:05;;;;;;;13.30;3.10;;;;;;;;;;4953822;28;20306;-63
2022/01/22 02:04:31;;;;;;;11.40;3.40;;;;;;;;;;4954695;28;20654;-64
2022/01/22 02:06:56;;;;;;;13.00;3.78;;;;;;;;;;4954661;28;20293;-64
2022/01/22 02:09:22;;;;;;;14.37;3.63;;;;;;;;;;4953463;28;20214;-64
2022/01/22 02:11:56;;;;;;;12.10;3.23;;;;;;;;;;4953345;28;20218;-64
2022/01/22 02:24:59;;;;;;;11.48;3.50;;;;;;;;;;5011958;28;20293;-64
2022/01/22 02:27:24;;;;;;;16.17;3.50;;;;;;;;;;5012346;28;20660;-64
2022/01/22 02:29:50;;;;;;;10.23;3.67;;;;;;;;;;5011779;28;20270;-64
2022/01/22 02:32:54;;;;;;;16.95;3.92;;;;;;;;;;5012343;28;20323;-64
2022/01/22 02:35:30;;;;;;;15.20;3.43;;;;;;;;;;5011916;28;20563;-64
2022/01/22 02:38:02;;;;;;;13.55;3.65;;;;;;;;;;4995916;28;20278;-64
2022/01/22 02:40:31;;;;;;;10.37;3.80;;;;;;;;;;5012245;28;20220;-64
2022/01/22 02:42:58;;;;;;;13.50;3.95;;;;;;;;;;5012578;28;20217;-64
2022/01/22 02:45:23;;;;;;;14.25;3.42;;;;;;;;;;5011301;28;20228;-64
2022/01/22 02:47:49;;;;;;;16.30;3.70;;;;;;;;;;5015256;28;20295;-65
2022/01/22 02:50:15;;;;;;;15.00;3.92;;;;;;;;;;5015912;28;20218;-63
2022/01/22 02:52:40;;;;;;;15.48;3.17;;;;;;;;;;5016093;28;20220;-64
2022/01/22 02:55:07;;;;;;;12.70;3.57;;;;;;;;;;5015923;28;20207;-63
2022/01/22 02:57:34;;;;;;;14.70;3.45;;;;;;;;;;5016393;28;20258;-64
2022/01/22 03:00:00;;;;;;;16.53;3.90;;;;;;;;;;5012061;28;20209;-64
2022/01/22 03:02:26;;;;;;;18.73;3.87;;;;;;;;;;4996527;28;20213;-64
2022/01/22 03:04:51;;;;;;;14.20;3.50;;;;;;;;;;4996376;28;20217;-64
2022/01/22 03:07:16;;;;;;;15.20;3.42;;;;;;;;;;4995915;28;20220;-64
2022/01/22 03:09:44;;;;;;;15.77;4.50;;;;;;;;;;4996518;28;20213;-64
2022/01/22 03:17:28;;;;;;;19.70;4.25;;;;;;;;;;4969710;28;20245;-63
2022/01/22 03:20:03;;;;;;;17.90;4.33;;;;;;;;;;4975868;28;20233;-64
2022/01/22 03:22:53;;;;;;;17.23;4.00;;;;;;;;;;4985863;28;20307;-64
2022/01/22 03:27:59;;;;;;;16.58;3.80;;;;;;;;;;5015031;28;20220;-64
2022/01/22 03:30:24;;;;;;;25.80;5.15;;;;;;;;;;5015197;28;20238;-64
2022/01/22 03:32:52;;;;;;;21.50;4.93;;;;;;;;;;5015653;28;20293;-64
2022/01/22 03:37:43;;;;;;;17.77;4.05;;;;;;;;;;5015714;28;20236;-64
2022/01/22 03:40:09;;;;;;;11.60;3.78;;;;;;;;;;5014281;28;20228;-64
2022/01/22 03:42:35;;;;;;;13.70;4.03;;;;;;;;;;5015365;28;20223;-64
2022/01/22 03:45:00;;;;;;;12.15;3.63;;;;;;;;;;5015522;28;20255;-64
2022/01/22 03:47:26;;;;;;;13.80;3.90;;;;;;;;;;5014581;28;20216;-64
2022/01/22 03:49:51;;;;;;;11.63;3.80;;;;;;;;;;5015202;28;20216;-64
2022/01/22 03:52:17;;;;;;;13.55;4.03;;;;;;;;;;5015314;28;20642;-64
2022/01/22 03:54:43;;;;;;;16.17;4.47;;;;;;;;;;5014542;28;20717;-64
2022/01/22 03:57:09;;;;;;;15.65;4.05;;;;;;;;;;5014714;28;20248;-63
2022/01/22 03:59:34;;;;;;;14.75;3.60;;;;;;;;;;5014646;28;20279;-64
2022/01/22 04:04:32;;;;;;;13.35;4.10;;;;;;;;;;4992970;28;20270;-63
2022/01/22 04:07:28;;;;;;;13.27;3.58;;;;;;;;;;4984533;28;20218;-63
2022/01/22 04:09:45;;;;;;;16.15;3.78;;;;;;;;;;4974697;28;20252;-63
2022/01/22 04:12:13;;;;;;;12.23;3.63;;;;;;;;;;4975535;28;20361;-63
2022/01/22 04:14:46;;;;;;;14.30;4.05;;;;;;;;;;4975711;28;20229;-63
2022/01/22 04:17:25;;;;;;;14.68;3.58;;;;;;;;;;4984698;28;20279;-63
2022/01/22 04:25:22;;;;;;;11.90;3.80;;;;;;;;;;5014645;28;20640;-63
2022/01/22 04:27:48;;;;;;;13.57;3.72;;;;;;;;;;5014664;28;20304;-63
2022/01/22 04:30:13;;;;;;;18.40;3.95;;;;;;;;;;5013279;28;20296;-63
2022/01/22 04:32:39;;;;;;;9.98;3.03;;;;;;;;;;5014954;28;20205;-63
2022/01/22 04:35:04;;;;;;;14.55;4.20;;;;;;;;;;5013958;28;20266;-63
2022/01/22 04:37:29;;;;;;;18.40;4.97;;;;;;;;;;4996313;28;20208;-63
2022/01/22 04:39:55;;;;;;;14.93;4.30;;;;;;;;;;5014224;28;20311;-63
2022/01/22 04:42:20;;;;;;;14.70;3.97;;;;;;;;;;5014181;28;20212;-63
2022/01/22 04:45:01;;;;;;;14.05;3.88;;;;;;;;;;5013741;28;20319;-63
2022/01/22 04:47:45;;;;;;;18.67;3.97;;;;;;;;;;4998953;28;20212;-63
2022/01/22 04:54:58;;;;;;;13.20;4.57;;;;;;;;;;5014418;28;20227;-64
2022/01/22 04:55:50;;;;;;;13.57;3.90;;;;;;;;;;5013792;28;20305;-63
2022/01/22 04:58:15;;;;;;;14.55;4.00;;;;;;;;;;5012957;28;20220;-63
2022/01/22 05:00:42;;;;;;;18.35;4.00;;;;;;;;;;4987452;28;20221;-63
2022/01/22 05:03:07;;;;;;;15.33;4.10;;;;;;;;;;4994238;28;20220;-63
2022/01/22 05:05:32;;;;;;;14.07;3.55;;;;;;;;;;4993577;28;20349;-63
2022/01/22 05:07:58;;;;;;;10.65;4.15;;;;;;;;;;4994298;28;20205;-64
2022/01/22 05:10:23;;;;;;;13.13;3.70;;;;;;;;;;4975778;28;20210;-64
2022/01/22 05:12:49;;;;;;;15.25;3.72;;;;;;;;;;4976282;28;20246;-63
2022/01/22 05:15:16;;;;;;;14.25;4.20;;;;;;;;;;4993906;28;20260;-64
2022/01/22 05:17:43;;;;;;;12.73;3.67;;;;;;;;;;4980380;28;20577;-63
2022/01/22 05:20:14;;;;;;;13.75;3.40;;;;;;;;;;4973385;28;20240;-63
2022/01/22 05:22:53;;;;;;;11.77;3.63;;;;;;;;;;4987051;28;20232;-63
2022/01/22 05:25:23;;;;;;;9.65;3.28;;;;;;;;;;5013598;28;20228;-63
2022/01/22 05:28:05;;;;;;;11.10;3.20;;;;;;;;;;5012756;28;20228;-63
2022/01/22 05:33:27;;;;;;;8.13;3.00;;;;;;;;;;5012486;28;20255;-62
2022/01/22 05:38:32;;;;;;;13.83;3.77;;;;;;;;;;5013257;28;20234;-63
2022/01/22 05:40:57;;;;;;;12.07;2.97;;;;;;;;;;5012617;28;20305;-64
2022/01/22 05:43:23;;;;;;;15.05;3.10;;;;;;;;;;5013238;28;20204;-63
2022/01/22 05:45:48;;;;;;;11.45;3.72;;;;;;;;;;5013175;28;20687;-63
2022/01/22 05:48:13;;;;;;;9.30;2.55;;;;;;;;;;5012005;28;20209;-63
2022/01/22 05:53:15;;;;;;;11.57;2.80;;;;;;;;;;5012730;28;20211;-63
2022/01/22 06:00:52;;;;;;;8.18;2.45;;;;;;;;;;5001882;28;20224;-63
2022/01/22 06:03:17;;;;;;;11.38;2.60;;;;;;;;;;4993135;28;20220;-63
2022/01/22 06:05:42;;;;;;;9.05;2.88;;;;;;;;;;4993357;28;20288;-63
2022/01/22 06:08:08;;;;;;;9.20;2.42;;;;;;;;;;4991977;28;20220;-62
2022/01/22 06:10:34;;;;;;;11.93;2.77;;;;;;;;;;4993483;28;20324;-63
2022/01/22 06:13:16;;;;;;;7.97;1.90;;;;;;;;;;4993082;28;20393;-63
2022/01/22 06:15:41;;;;;;;9.70;2.58;;;;;;;;;;4992568;28;20304;-63
2022/01/22 06:18:07;;;;;;;9.18;2.45;;;;;;;;;;4974849;28;20687;-63
2022/01/22 06:20:32;;;;;;;11.90;2.90;;;;;;;;;;4973871;28;20808;-64
2022/01/22 06:22:57;;;;;;;10.90;2.60;;;;;;;;;;4990027;28;20767;-63
2022/01/22 06:25:23;;;;;;;10.60;2.38;;;;;;;;;;5012338;28;20230;-63
2022/01/22 06:27:48;;;;;;;9.00;2.43;;;;;;;;;;5012632;28;20208;-63
2022/01/22 06:30:13;;;;;;;7.05;2.28;;;;;;;;;;5011652;28;20212;-63
2022/01/22 06:32:38;;;;;;;9.98;2.33;;;;;;;;;;5012732;28;20278;-64
2022/01/22 06:35:04;;;;;;;9.00;2.30;;;;;;;;;;5012287;28;20208;-63
2022/01/22 06:37:29;;;;;;;10.50;2.13;;;;;;;;;;5011970;28;20246;-64
2022/01/22 06:42:30;;;;;;;7.95;2.53;;;;;;;;;;5012331;28;20291;-63
2022/01/22 06:44:56;;;;;;;7.00;2.00;;;;;;;;;;4994760;28;20316;-63
2022/01/22 06:47:21;;;;;;;10.87;2.67;;;;;;;;;;5011852;28;20232;-63
2022/01/22 06:49:47;;;;;;;10.93;2.47;;;;;;;;;;5012587;28;20212;-63
2022/01/22 06:52:12;;;;;;;12.70;2.53;;;;;;;;;;5011389;28;20672;-63
2022/01/22 06:54:38;;;;;;;7.90;2.40;;;;;;;;;;5012401;28;20216;-63
2022/01/22 06:57:04;;;;;;;10.50;3.05;;;;;;;;;;5011182;28;20294;-63
2022/01/22 06:59:29;;;;;;;8.97;2.70;;;;;;;;;;5012561;28;20664;-64
2022/01/22 07:01:54;;;;;;;9.13;2.60;;;;;;;;;;4993182;28;20227;-64
2022/01/22 07:04:20;;;;;;;6.07;2.70;;;;;;;;;;4991508;28;20213;-64
2022/01/22 07:06:45;;;;;;;8.60;2.60;;;;;;;;;;4992481;28;20220;-64
2022/01/22 07:09:11;;;;;;;10.93;3.00;;;;;;;;;;4992181;28;20213;-64
2022/01/22 07:11:36;;;;;;;8.75;3.00;;;;;;;;;;4991944;28;20217;-65
2022/01/22 07:14:03;;;;;;;6.75;2.70;;;;;;;;;;4992565;28;20250;-64
2022/01/22 07:16:28;;;;;;;8.73;2.97;;;;;;;;;;4988296;28;20575;-66
2022/01/22 07:18:59;;;;;;;9.10;3.10;;;;;;;;;;4972181;28;20232;-63
2022/01/22 07:21:24;;;;;;;9.37;4.10;;;;;;;;;;4955058;28;20402;-67
2022/01/22 07:26:15;;;;;;;10.70;3.65;;;;;;;;;;5011075;28;20216;-63
2022/01/22 07:28:42;;;;;;;6.80;3.15;;;;;;;;;;5012186;28;20232;-64
2022/01/22 07:31:08;;;;;;;9.98;3.90;;;;;;;;;;5011720;28;20220;-62
2022/01/22 07:33:34;;;;;;;9.68;3.22;;;;;;;;;;5012952;28;20220;-65
2022/01/22 07:36:00;;;;;;;6.43;3.78;;;;;;;;;;5015698;28;20742;-63
2022/01/22 07:38:25;;;;;;;8.68;4.00;;;;;;;;;;5015154;28;20216;-63
2022/01/22 07:40:51;;;;;;;8.52;4.10;;;;;;;;;;5014837;28;20698;-62
2022/01/22 07:43:16;;;;;;;8.88;3.90;;;;;;;;;;5015263;28;20220;-63
2022/01/22 07:45:42;;;;;;;7.93;4.00;;;;;;;;;;5015644;28;20212;-64
2022/01/22 07:48:07;;;;;;;7.38;3.60;;;;;;;;;;5013956;28;20303;-62
2022/01/22 07:50:32;;;;;;;6.60;2.97;;;;;;;;;;5015717;28;20216;-63
2022/01/22 07:52:57;;;;;;;6.85;3.50;;;;;;;;;;5015258;28;20577;-64
2022/01/22 07:55:23;;;;;;;7.43;3.50;;;;;;;;;;5014216;28;20299;-64
2022/01/22 07:57:48;;;;;;;10.00;5.18;;;;;;;;;;5015178;28;20680;-62
2022/01/22 08:00:16;;;;;;;12.95;6.68;;;;;;;;;;5009312;28;20229;-64
2022/01/22 08:02:41;;;;;;;8.75;4.10;;;;;;;;;;4995516;28;20213;-64
2022/01/22 08:05:07;;;;;;;7.22;3.75;;;;;;;;;;4994959;28;20592;-64
2022/01/22 08:07:32;;;;;;;10.38;6.25;;;;;;;;;;4994717;28;20241;-67
2022/01/22 08:09:58;;;;;;;9.53;5.37;;;;;;;;;;4995485;28;20276;-68
2022/01/22 08:12:23;;;;;;;9.87;4.80;;;;;;;;;;4995088;28;20217;-72
2022/01/22 08:14:48;;;;;;;8.70;4.72;;;;;;;;;;5002879;28;20664;-64
2022/01/22 08:17:14;;;;;;;8.55;3.53;;;;;;;;;;5003990;28;20213;-63
2022/01/22 08:19:39;;;;;;;4.90;2.90;;;;;;;;;;4995072;28;20340;-63
2022/01/22 08:22:04;;;;;;;3.80;2.38;;;;;;;;;;4995264;28;20233;-70
2022/01/22 08:24:30;;;;;;;5.43;2.50;;;;;;;;;;5014643;28;20270;-63
2022/01/22 08:29:30;;;;;;;7.55;2.80;;;;;;;;;;5013306;28;20274;-63
2022/01/22 08:32:09;;;;;;;3.78;2.20;;;;;;;;;;5014760;28;20687;-63
2022/01/22 08:37:18;;;;;;;4.88;2.40;;;;;;;;;;5013539;28;20739;-63
2022/01/22 08:39:43;;;;;;;4.53;2.20;;;;;;;;;;5014518;28;20233;-63
2022/01/22 08:42:08;;;;;;;4.07;2.33;;;;;;;;;;5014344;28;20212;-62
2022/01/22 08:44:34;;;;;;;5.38;2.40;;;;;;;;;;5012556;28;20251;-63
2022/01/22 08:46:59;;;;;;;4.50;2.47;;;;;;;;;;5014489;28;20216;-63
2022/01/22 08:49:25;;;;;;;7.75;2.97;;;;;;;;;;5013668;28;20215;-63
2022/01/22 08:51:51;;;;;;;35.60;17.80;;;;;;;;;;5013742;28;20232;-63
2022/01/22 08:54:16;;;;;;;13.82;6.72;;;;;;;;;;5013938;28;20244;-63
2022/01/22 08:56:41;;;;;;;6.53;2.70;;;;;;;;;;5013650;28;20275;-63
2022/01/22 08:59:07;;;;;;;14.70;9.60;;;;;;;;;;5013179;28;20212;-64
2022/01/22 09:01:33;;;;;;;7.82;3.42;;;;;;;;;;4997847;28;20687;-64
2022/01/22 09:03:58;;;;;;;15.23;9.83;;;;;;;;;;4993705;28;20209;-64
2022/01/22 09:06:23;;;;;;;10.73;3.08;;;;;;;;;;4993739;28;20205;-63
2022/01/22 09:08:51;;;;;;;5.05;2.58;;;;;;;;;;4994539;28;20221;-64
2022/01/22 09:11:18;;;;;;;13.82;8.65;;;;;;;;;;4993302;28;20213;-64
2022/01/22 09:13:43;;;;;;;10.18;4.43;;;;;;;;;;4993419;28;20623;-64
2022/01/22 09:16:09;;;;;;;10.30;5.03;;;;;;;;;;4991896;28;20390;-63
2022/01/22 09:18:34;;;;;;;17.10;7.40;;;;;;;;;;4974119;28;20222;-62
2022/01/22 09:23:24;;;;;;;9.73;3.47;;;;;;;;;;4986086;28;20229;-62
2022/01/22 09:25:50;;;;;;;14.85;6.63;;;;;;;;;;4993235;28;20304;-62
2022/01/22 09:28:15;;;;;;;12.30;3.40;;;;;;;;;;4993179;28;20240;-62
2022/01/22 09:30:40;;;;;;;10.52;3.38;;;;;;;;;;4968564;28;20220;-62
2022/01/22 09:33:06;;;;;;;15.40;3.58;;;;;;;;;;4973369;28;20269;-62
2022/01/22 09:35:31;;;;;;;14.55;4.10;;;;;;;;;;4974416;28;20615;-60
2022/01/22 09:37:57;;;;;;;13.13;4.83;;;;;;;;;;4974333;28;20241;-62
2022/01/22 09:40:24;;;;;;;14.73;4.03;;;;;;;;;;4972925;28;20606;-62
2022/01/22 09:42:49;;;;;;;9.00;3.13;;;;;;;;;;4974169;28;20276;-61
2022/01/22 09:45:15;;;;;;;16.10;7.25;;;;;;;;;;4973925;28;20213;-61
2022/01/22 09:47:42;;;;;;;16.35;6.20;;;;;;;;;;4973471;28;20681;-62
2022/01/22 09:50:08;;;;;;;13.63;3.90;;;;;;;;;;4956272;28;20248;-61
2022/01/22 09:52:33;;;;;;;15.43;8.13;;;;;;;;;;4957063;28;20217;-62
2022/01/22 09:54:59;;;;;;;11.18;3.90;;;;;;;;;;4973432;28;20277;-61
2022/01/22 09:57:26;;;;;;;11.35;2.95;;;;;;;;;;4956269;28;20209;-62
2022/01/22 09:59:51;;;;;;;11.57;3.80;;;;;;;;;;4974816;28;20720;-62
2022/01/22 10:02:17;;;;;;;9.80;2.50;;;;;;;;;;4992757;28;20213;-62
2022/01/22 10:04:45;;;;;;;8.32;2.50;;;;;;;;;;4993395;28;20751;-62
2022/01/22 10:07:17;;;;;;;12.00;2.47;;;;;;;;;;4991932;28;20279;-62
2022/01/22 10:09:55;;;;;;;11.65;3.05;;;;;;;;;;4992973;28;20559;-62
2022/01/22 10:12:22;;;;;;;7.68;3.40;;;;;;;;;;4992735;28;20252;-62
2022/01/22 10:15:06;;;;;;;9.88;3.05;;;;;;;;;;4992066;28;20217;-62
2022/01/22 10:17:48;;;;;;;11.30;3.05;;;;;;;;;;4992834;28;20804;-62
2022/01/22 10:20:21;;;;;;;11.80;3.75;;;;;;;;;;4982588;28;20241;-62
2022/01/22 10:22:46;;;;;;;11.90;3.23;;;;;;;;;;4978890;28;20437;-61
2022/01/22 10:25:33;;;;;;;13.45;2.65;;;;;;;;;;4992620;28;20293;-61
2022/01/22 10:28:00;;;;;;;11.43;2.95;;;;;;;;;;4991801;28;20531;-61
2022/01/22 10:30:37;;;;;;;10.55;3.40;;;;;;;;;;4992679;28;20209;-63
2022/01/22 10:35:44;;;;;;;16.05;9.35;;;;;;;;;;4992081;28;20216;-62
2022/01/22 10:38:10;;;;;;;25.00;19.67;;;;;;;;;;4992254;28;20213;-63
2022/01/22 10:40:37;;;;;;;10.25;4.95;;;;;;;;;;4992828;28;20252;-62
2022/01/22 10:43:12;;;;;;;26.60;22.63;;;;;;;;;;4991492;28;20213;-61
2022/01/22 10:45:41;;;;;;;17.05;12.60;;;;;;;;;;4992952;28;20240;-61
2022/01/22 10:48:13;;;;;;;19.17;14.23;;;;;;;;;;4975583;28;20296;-61
2022/01/22 10:50:38;;;;;;;24.55;19.17;;;;;;;;;;4992064;28;20218;-62
2022/01/22 10:53:03;;;;;;;16.40;8.27;;;;;;;;;;4975009;28;20216;-62
2022/01/22 10:55:29;;;;;;;15.45;8.93;;;;;;;;;;4992772;28;20579;-62
2022/01/22 10:58:06;;;;;;;13.85;7.78;;;;;;;;;;4991780;28;20259;-62
2022/01/22 11:00:31;;;;;;;12.55;7.85;;;;;;;;;;4984616;28;20221;-62
2022/01/22 11:02:56;;;;;;;17.83;15.40;;;;;;;;;;4973365;28;20233;-62
2022/01/22 11:05:35;;;;;;;14.23;7.47;;;;;;;;;;4972021;28;20627;-62
2022/01/22 11:08:07;;;;;;;10.45;6.70;;;;;;;;;;4973926;28;20217;-62
2022/01/22 11:10:32;;;;;;;12.10;4.22;;;;;;;;;;4976314;28;20209;-62
2022/01/22 11:12:58;;;;;;;12.80;4.90;;;;;;;;;;4959486;28;20206;-62
2022/01/22 11:15:23;;;;;;;15.98;8.43;;;;;;;;;;4976416;28;20673;-61
2022/01/22 11:17:48;;;;;;;13.82;5.18;;;;;;;;;;4973567;28;20217;-62
2022/01/22 11:20:14;;;;;;;12.30;5.47;;;;;;;;;;4978219;28;20233;-61
2022/01/22 11:22:39;;;;;;;11.95;5.68;;;;;;;;;;4984639;28;20235;-62
2022/01/22 11:25:07;;;;;;;11.90;5.13;;;;;;;;;;4996872;28;20605;-62
2022/01/22 11:27:33;;;;;;;16.20;8.60;;;;;;;;;;5015232;28;20204;-62
2022/01/22 11:30:01;;;;;;;14.40;4.47;;;;;;;;;;4998021;28;20216;-62
2022/01/22 11:32:27;;;;;;;12.80;6.18;;;;;;;;;;5014489;28;20237;-61
2022/01/22 11:34:53;;;;;;;10.35;5.13;;;;;;;;;;4997921;28;20270;-62
2022/01/22 11:37:27;;;;;;;10.60;5.10;;;;;;;;;;5015126;28;20249;-62
2022/01/22 11:40:17;;;;;;;18.15;13.77;;;;;;;;;;4997000;28;20227;-62
2022/01/22 11:43:14;;;;;;;13.18;6.70;;;;;;;;;;5015167;28;20212;-61
2022/01/22 11:45:42;;;;;;;12.20;5.53;;;;;;;;;;5014381;28;20216;-64
2022/01/22 11:48:09;;;;;;;9.48;4.80;;;;;;;;;;5015123;28;20216;-61
2022/01/22 11:50:34;;;;;;;13.40;6.93;;;;;;;;;;5015126;28;20220;-61
2022/01/22 11:53:19;;;;;;;14.27;7.45;;;;;;;;;;5014572;28;20562;-62
2022/01/22 11:56:05;;;;;;;13.07;7.32;;;;;;;;;;5014533;28;20275;-62
2022/01/22 11:58:30;;;;;;;15.88;7.50;;;;;;;;;;5014806;28;20220;-61
2022/01/22 12:00:55;;;;;;;13.48;4.90;;;;;;;;;;5003295;28;20228;-62
2022/01/22 12:03:20;;;;;;;11.25;3.53;;;;;;;;;;4995289;28;20250;-62
2022/01/22 12:05:49;;;;;;;10.68;3.80;;;;;;;;;;4995632;28;20221;-62
2022/01/22 12:08:15;;;;;;;11.02;4.68;;;;;;;;;;4994250;28;20224;-62
2022/01/22 12:10:42;;;;;;;9.45;3.90;;;;;;;;;;4995189;28;20221;-62
2022/01/22 12:16:09;;;;;;;12.20;2.75;;;;;;;;;;4993162;28;20336;-62
2022/01/22 12:18:35;;;;;;;13.15;8.65;;;;;;;;;;4976006;28;20238;-62
2022/01/22 12:23:29;;;;;;;20.02;11.07;;;;;;;;;;4983232;28;20227;-62
2022/01/22 12:25:55;;;;;;;14.88;7.18;;;;;;;;;;5014692;28;20287;-62
2022/01/22 12:28:36;;;;;;;11.82;4.10;;;;;;;;;;5013487;28;20216;-62
2022/01/22 12:31:03;;;;;;;9.13;3.47;;;;;;;;;;5014036;28;20216;-62
2022/01/22 12:33:28;;;;;;;11.60;3.15;;;;;;;;;;4997032;28;20266;-62
2022/01/22 12:35:56;;;;;;;12.27;3.20;;;;;;;;;;5013652;28;20221;-63
2022/01/22 12:38:26;;;;;;;9.73;3.10;;;;;;;;;;5013896;28;20212;-62
2022/01/22 12:40:56;;;;;;;10.50;3.22;;;;;;;;;;5014088;28;20311;-62
2022/01/22 12:43:29;;;;;;;8.55;3.13;;;;;;;;;;5013382;28;20228;-62
2022/01/22 12:45:55;;;;;;;9.57;3.20;;;;;;;;;;5014310;28;20680;-62
2022/01/22 12:48:20;;;;;;;11.25;3.03;;;;;;;;;;5013970;28;20216;-62
2022/01/22 12:50:46;;;;;;;9.43;3.05;;;;;;;;;;5013456;28;20221;-62
2022/01/22 12:53:12;;;;;;;8.20;2.75;;;;;;;;;;5013776;28;20679;-62
2022/01/22 12:56:00;;;;;;;9.77;3.38;;;;;;;;;;5014141;28;20213;-62
2022/01/22 12:58:23;;;;;;;8.07;3.07;;;;;;;;;;5013503;28;20215;-62
2022/01/22 13:00:51;;;;;;;10.70;2.83;;;;;;;;;;5002544;28;20221;-62
2022/01/22 13:03:30;;;;;;;8.90;3.00;;;;;;;;;;4984555;28;20590;-62
2022/01/22 13:05:55;;;;;;;10.80;2.90;;;;;;;;;;4974890;28;20217;-62
2022/01/22 13:08:26;;;;;;;10.02;2.75;;;;;;;;;;4956914;28;20222;-62
2022/01/22 13:10:54;;;;;;;8.82;2.90;;;;;;;;;;4974038;28;20292;-62
2022/01/22 13:13:19;;;;;;;9.15;3.03;;;;;;;;;;4957390;28;20218;-62
2022/01/22 13:15:44;;;;;;;11.35;2.90;;;;;;;;;;4974832;28;20220;-62
2022/01/22 13:18:10;;;;;;;8.00;3.10;;;;;;;;;;4991283;28;20217;-62
2022/01/22 13:20:36;;;;;;;5.82;2.60;;;;;;;;;;4993945;28;20235;-62
2022/01/22 13:23:19;;;;;;;6.43;2.60;;;;;;;;;;4985272;28;20319;-62
2022/01/22 13:25:44;;;;;;;6.15;2.35;;;;;;;;;;5011812;28;20323;-62
2022/01/22 13:28:12;;;;;;;7.07;2.85;;;;;;;;;;5012907;28;20303;-62
2022/01/22 13:30:43;;;;;;;6.75;2.85;;;;;;;;;;5012906;28;20204;-62
2022/01/22 13:33:14;;;;;;;7.35;2.75;;;;;;;;;;5012156;28;20679;-62
2022/01/22 13:38:52;;;;;;;9.93;2.95;;;;;;;;;;5011987;28;20266;-62
2022/01/22 13:49:19;;;;;;;7.60;2.55;;;;;;;;;;5012842;28;20745;-62
2022/01/22 13:51:45;;;;;;;10.65;2.95;;;;;;;;;;4995498;28;20216;-62
2022/01/22 13:54:10;;;;;;;10.88;2.67;;;;;;;;;;4994200;28;20307;-62
2022/01/22 13:56:44;;;;;;;6.88;2.65;;;;;;;;;;5012934;28;20226;-62
2022/01/22 13:59:16;;;;;;;5.55;2.30;;;;;;;;;;5011629;28;20224;-62
2022/01/22 14:01:51;;;;;;;11.13;2.92;;;;;;;;;;4994813;28;20224;-62
2022/01/22 14:04:16;;;;;;;10.75;3.05;;;;;;;;;;4992879;28;20213;-62
2022/01/22 14:06:42;;;;;;;11.05;3.20;;;;;;;;;;4992590;28;20263;-62
2022/01/22 14:09:13;;;;;;;12.45;3.30;;;;;;;;;;4992872;28;20208;-62
2022/01/22 14:11:58;;;;;;;11.73;2.88;;;;;;;;;;4993304;28;20338;-62
2022/01/22 14:14:23;;;;;;;10.77;3.90;;;;;;;;;;4974512;28;20599;-62
2022/01/22 14:17:05;;;;;;;7.47;3.33;;;;;;;;;;4986044;28;20240;-62
2022/01/22 14:19:31;;;;;;;10.93;4.20;;;;;;;;;;4973480;28;20224;-62
2022/01/22 14:21:56;;;;;;;10.20;3.97;;;;;;;;;;4973089;28;20238;-62
2022/01/22 14:24:27;;;;;;;9.80;4.43;;;;;;;;;;5012265;28;20287;-62
2022/01/22 14:26:53;;;;;;;9.40;4.70;;;;;;;;;;5011763;28;20216;-62
2022/01/22 14:29:19;;;;;;;10.85;4.75;;;;;;;;;;5011038;28;20215;-62
2022/01/22 14:31:51;;;;;;;14.45;5.03;;;;;;;;;;5012657;28;20212;-62
2022/01/22 14:34:28;;;;;;;17.13;5.70;;;;;;;;;;4994519;28;20219;-62
2022/01/22 14:36:53;;;;;;;12.52;5.07;;;;;;;;;;5012552;28;20274;-62
2022/01/22 14:43:46;;;;;;;9.88;5.10;;;;;;;;;;5011418;28;20224;-62
2022/01/22 14:45:06;;;;;;;12.68;5.68;;;;;;;;;;5016469;28;20583;-70
2022/01/22 14:47:32;;;;;;;12.70;5.40;;;;;;;;;;4999103;28;20216;-70
2022/01/22 14:50:02;;;;;;;12.73;4.85;;;;;;;;;;5015639;28;20554;-70
2022/01/22 14:52:27;;;;;;;14.27;5.28;;;;;;;;;;5016213;28;20216;-70
2022/01/22 14:54:54;;;;;;;11.27;5.03;;;;;;;;;;5016607;28;20216;-69
2022/01/22 14:57:21;;;;;;;13.05;5.25;;;;;;;;;;4997395;28;20208;-70
2022/01/22 14:59:46;;;;;;;10.10;4.60;;;;;;;;;;5014403;28;20373;-70
2022/01/22 15:02:12;;;;;;;11.15;4.45;;;;;;;;;;4978967;28;20733;-69
2022/01/22 15:04:37;;;;;;;8.30;4.97;;;;;;;;;;4978225;28;20220;-70
2022/01/22 15:07:03;;;;;;;15.55;7.55;;;;;;;;;;4996230;28;20292;-69
2022/01/22 15:09:30;;;;;;;13.02;6.45;;;;;;;;;;4978331;28;20203;-69
2022/01/22 15:11:55;;;;;;;12.18;5.88;;;;;;;;;;4996869;28;20239;-70
2022/01/22 15:14:23;;;;;;;13.02;5.78;;;;;;;;;;4995929;28;20615;-69
2022/01/22 15:16:49;;;;;;;14.13;5.50;;;;;;;;;;4971559;28;20301;-72
2022/01/22 15:19:17;;;;;;;12.38;5.60;;;;;;;;;;4959266;28;20312;-69
2022/01/22 15:21:43;;;;;;;11.15;5.50;;;;;;;;;;4976617;28;20265;-70
2022/01/22 15:24:08;;;;;;;11.05;5.07;;;;;;;;;;4994170;28;20228;-69
2022/01/22 15:26:33;;;;;;;13.25;5.10;;;;;;;;;;5015777;28;20212;-70
2022/01/22 15:28:59;;;;;;;10.02;4.70;;;;;;;;;;4997877;28;20209;-69
2022/01/22 15:31:29;;;;;;;9.70;5.10;;;;;;;;;;4997182;28;20209;-70
2022/01/22 15:34:06;;;;;;;11.68;5.40;;;;;;;;;;5015541;28;20225;-70
2022/01/22 15:36:32;;;;;;;9.82;5.35;;;;;;;;;;4973376;28;20261;-72
2022/01/22 15:38:57;;;;;;;12.55;5.75;;;;;;;;;;4995089;28;20221;-73
2022/01/22 15:41:22;;;;;;;14.77;6.43;;;;;;;;;;4978177;28;20217;-72
2022/01/22 15:43:48;;;;;;;10.65;5.40;;;;;;;;;;4995662;28;20213;-72
2022/01/22 15:46:13;;;;;;;10.52;4.82;;;;;;;;;;4994713;28;20743;-72
2022/01/22 15:48:41;;;;;;;14.55;5.78;;;;;;;;;;4995782;28;20336;-72
2022/01/22 15:51:06;;;;;;;13.43;5.78;;;;;;;;;;4995551;28;20213;-72
2022/01/22 15:53:32;;;;;;;12.20;5.32;;;;;;;;;;4994524;28;20229;-73
2022/01/22 15:55:57;;;;;;;11.63;6.03;;;;;;;;;;4995692;28;20217;-73
2022/01/22 15:58:22;;;;;;;15.18;5.85;;;;;;;;;;4995047;28;20213;-72
2022/01/22 16:00:47;;;;;;;10.35;5.55;;;;;;;;;;4992440;28;20237;-73
2022/01/22 16:03:14;;;;;;;12.45;5.78;;;;;;;;;;4977693;28;20579;-73
2022/01/22 16:05:42;;;;;;;13.02;5.90;;;;;;;;;;4994755;28;20209;-70
2022/01/22 16:08:07;;;;;;;14.17;5.93;;;;;;;;;;4969458;28;20222;-70
2022/01/22 16:10:32;;;;;;;11.93;6.10;;;;;;;;;;4975816;28;20214;-71
2022/01/22 16:12:58;;;;;;;11.38;5.68;;;;;;;;;;4975283;28;20237;-71
2022/01/22 16:15:23;;;;;;;13.38;6.63;;;;;;;;;;4975460;28;20237;-71
2022/01/22 16:17:49;;;;;;;13.38;5.57;;;;;;;;;;4990609;28;20209;-69